Ana Sayfa
METAR-TAF:

METAR-TAF

Havaalanları :

Morelia, Meksika

Enlem: 19-51N, Boylam: 101-02W, yükseklik: 1833 m

Güncel hava durumu gözlemi

Rapor saat 19:46 UTC de 57 dakika önce yapıldı.
Sakin rüzgar
Sıcaklık 21°C
Nem 43%
Basınç 1027 hPa
Görüş mesafesi: 12.9 km
3000 ft yükseklikte az bulutlu
23000 ft yükseklikte az bulutlu

METAR: MMMM 201946Z 00000KT 8SM FEW030 FEW230 21/08 A3034 RMK 8/502 TCU/E/SW

Saat: 14:43 (20:43 UTC)

Tahmin

Rapor saat 16:47 UTC de 3 saat ve 56 dakika önce yapıldı.
Ayın 20'si saat 18 UTC'den ayın 21'si saat 24 UTC'ye kadar geçerli Tahmin
Rüzgar kuzey/kuzeybatıdan 6 kt
Görüş mesafesi: 10 km
3000 ft yükseklikte parçalı bulutlu
Ayın 21'si saat 0000 UTC'den
Rüzgar kuzeydan 5 kt
Görüş mesafesi: 9.7 km
2500 ft yükseklikte parçalı çok bulutlu
Toz Pusu

TAF: MMMM 201647Z 2018/2124 33006KT P6SM SCT030 FM210000 35005KT 6SM HZ BKN025

4.000'den fazla havaalanı için hava durumu gözlemleri ve tahminleri (METAR ve TAF raporları).

Kullanılabilir istasyonlar harita üzerinde sarı ve kırmızı noktalarla gösterilir.

İstasyonun adını görmek için fareyi noktanın üzerinde gezdirin.

Sonrasında hava gözlem ve tahminlerini görmek için tıklayın.

Haritayı değiştirmek için: yaklaştırmak için siyah artı işaretli yeşil düğmeye ve uzaklaştırmak için de eksi işaretli düğmeye hızla tıklayın; bitişik haritalar için yeşil okları kullanın.


METAR-TAF: